« Back
NWS Peachtree City, Ga » Text Product » CSG Terminal Aerodrome Forecast


Printer-friendly Version
Current Version              Previous Versions:   1  2  3  4  5  6  7  8  9  

Terminal Aerodrome Forecast

143
FTUS42 KFFC 032120 AAB
TAFCSG
TAF AMD
KCSG 032120Z 0321/0418 03004KT P6SM VCSH SCT070
      TEMPO 0321/0323 -TSRA BKN050CB
     FM040000 00000KT P6SM SCT070
     FM041700 25004KT P6SM FEW040 SCT250=



USA.gov is the U.S. government's official web portal to all federal, state and local government web resources and services.